Time;durP1;ratioP1;P1;durP2;ratioP2;P2;SDS_P1;SDS_P2;PMS_P1;PMS_P2;Temp;Humidity;BMP_temperature;BMP_pressure;BME280_temperature;BME280_humidity;BME280_pressure;Samples;Min_cycle;Max_cycle;Signal;HPM_P1;HPM_P2
2021/07/24 00:01:49;;;;;;;3.77;2.03;;;;;;;16.18;95.34;100994.94;5013558;28;21011;-74
2021/07/24 00:04:15;;;;;;;3.40;2.50;;;;;;;16.15;95.39;100984.66;5013480;28;20483;-74
2021/07/24 00:06:42;;;;;;;4.50;2.90;;;;;;;16.11;95.95;100986.44;5013675;28;20460;-74
2021/07/24 00:09:08;;;;;;;3.27;2.10;;;;;;;16.13;95.41;100984.19;5013442;28;20447;-74
2021/07/24 00:11:35;;;;;;;3.00;2.27;;;;;;;16.18;95.22;100980.47;5013786;28;20447;-75
2021/07/24 00:14:02;;;;;;;3.07;2.50;;;;;;;16.16;94.29;100972.59;5013698;28;20435;-74
2021/07/24 00:16:30;;;;;;;3.30;2.23;;;;;;;16.06;94.33;100967.50;5013615;28;20471;-75
2021/07/24 00:18:56;;;;;;;5.73;2.97;;;;;;;16.08;94.52;100967.97;5013299;28;20856;-75
2021/07/24 00:21:22;;;;;;;3.13;2.07;;;;;;;16.04;94.81;100970.56;5013609;28;20448;-75
2021/07/24 00:23:49;;;;;;;2.33;2.13;;;;;;;16.02;94.86;100972.00;5013558;28;20487;-75
2021/07/24 00:26:16;;;;;;;3.00;2.20;;;;;;;15.96;95.03;100965.13;5013520;28;20479;-74
2021/07/24 00:28:43;;;;;;;7.47;2.33;;;;;;;15.88;94.39;100962.09;5013223;28;20867;-75
2021/07/24 00:31:09;;;;;;;5.73;2.30;;;;;;;15.79;95.47;100972.25;5013201;28;20976;-74
2021/07/24 00:33:37;;;;;;;3.30;2.47;;;;;;;15.74;95.32;100972.44;5013506;28;20448;-74
2021/07/24 00:36:04;;;;;;;2.63;1.77;;;;;;;15.84;95.31;100969.34;5013023;28;20483;-74
2021/07/24 00:38:30;;;;;;;3.37;2.40;;;;;;;15.86;93.21;100969.03;5012631;28;20444;-75
2021/07/24 00:41:02;;;;;;;2.83;2.00;;;;;;;15.82;91.08;100968.09;5013375;28;20444;-75
2021/07/24 00:43:30;;;;;;;4.80;2.30;;;;;;;15.80;91.83;100960.19;5013402;28;20468;-74
2021/07/24 00:45:58;;;;;;;7.60;2.03;;;;;;;15.70;90.87;100954.28;5013303;28;20466;-75
2021/07/24 00:48:25;;;;;;;5.33;2.47;;;;;;;15.59;91.94;100957.34;5013331;28;20447;-74
2021/07/24 00:50:56;;;;;;;4.37;2.80;;;;;;;15.58;94.24;100954.94;5013357;28;20431;-75
2021/07/24 00:53:25;;;;;;;5.60;2.43;;;;;;;15.58;95.10;100949.47;5013327;28;20428;-74
2021/07/24 00:55:52;;;;;;;5.27;2.50;;;;;;;15.55;95.07;100945.47;5012891;28;20546;-74
2021/07/24 00:58:25;;;;;;;2.63;1.77;;;;;;;15.52;95.43;100948.06;5013202;28;20444;-74
2021/07/24 01:00:52;;;;;;;2.50;2.10;;;;;;;15.38;96.47;100946.31;5013432;28;20435;-74
2021/07/24 01:03:19;;;;;;;3.77;2.43;;;;;;;15.47;96.38;100943.56;5013186;28;20484;-75
2021/07/24 01:05:47;;;;;;;3.27;2.30;;;;;;;15.55;95.52;100944.69;5012996;28;20456;-75
2021/07/24 01:08:14;;;;;;;4.53;2.43;;;;;;;15.51;95.74;100944.53;5013168;28;20440;-75
2021/07/24 01:10:41;;;;;;;3.20;2.50;;;;;;;15.52;95.81;100942.59;5013220;28;20444;-75
2021/07/24 01:13:07;;;;;;;3.70;2.70;;;;;;;15.49;96.09;100930.38;5013085;28;20447;-75
2021/07/24 01:15:34;;;;;;;8.53;2.13;;;;;;;15.47;96.07;100934.56;5013031;28;20447;-75
2021/07/24 01:18:00;;;;;;;4.40;2.63;;;;;;;15.38;96.54;100929.94;5013053;28;20451;-74
2021/07/24 01:20:28;;;;;;;4.20;2.60;;;;;;;15.36;96.45;100929.47;5013035;28;20456;-75
2021/07/24 01:22:57;;;;;;;4.07;2.20;;;;;;;15.43;95.85;100933.63;5012939;28;20436;-75
2021/07/24 01:25:24;;;;;;;2.70;2.33;;;;;;;15.26;96.10;100935.25;5012930;28;20452;-75
2021/07/24 01:27:50;;;;;;;3.30;1.90;;;;;;;15.18;97.04;100927.06;5014395;28;20456;-75
2021/07/24 01:30:16;;;;;;;2.63;1.80;;;;;;;15.18;96.89;100929.81;5012631;28;20945;-75
2021/07/24 01:32:43;;;;;;;5.07;2.33;;;;;;;15.25;96.70;100933.66;5012977;28;20463;-75
2021/07/24 01:35:10;;;;;;;4.97;2.20;;;;;;;15.24;96.90;100929.34;5012443;28;20459;-74
2021/07/24 01:37:36;;;;;;;3.53;2.33;;;;;;;15.14;97.03;100926.94;5012604;28;20976;-72
2021/07/24 01:40:05;;;;;;;3.17;2.23;;;;;;;15.15;96.82;100923.09;5012881;28;20439;-73
2021/07/24 01:42:31;;;;;;;4.00;2.20;;;;;;;15.17;96.81;100934.47;5013076;28;20451;-74
2021/07/24 01:44:58;;;;;;;4.57;2.70;;;;;;;15.09;97.21;100932.53;5012733;28;20860;-75
2021/07/24 01:47:24;;;;;;;3.63;2.43;;;;;;;15.21;96.46;100929.16;5012692;28;20464;-76
2021/07/24 01:52:48;;;;;;;4.40;3.40;;;;;;;15.04;94.27;100924.53;5016213;28;20479;-76
2021/07/24 01:55:21;;;;;;;7.80;2.93;;;;;;;15.07;92.81;100924.69;5016270;28;20870;-75
2021/07/24 01:57:49;;;;;;;3.53;1.90;;;;;;;14.86;94.16;100930.00;5016206;28;20431;-75
2021/07/24 02:00:17;;;;;;;5.17;2.10;;;;;;;14.93;93.23;100926.00;5015751;28;20870;-75
2021/07/24 02:02:45;;;;;;;4.07;2.70;;;;;;;14.99;94.12;100930.97;5016154;28;20448;-75
2021/07/24 02:05:19;;;;;;;2.63;2.43;;;;;;;15.03;94.52;100922.94;5015934;28;20487;-75
2021/07/24 02:07:48;;;;;;;4.73;2.97;;;;;;;14.94;95.73;100914.75;5016049;28;20435;-75
2021/07/24 02:10:16;;;;;;;4.20;2.73;;;;;;;14.78;97.26;100922.63;5015934;28;20439;-75
2021/07/24 02:12:43;;;;;;;4.17;2.50;;;;;;;14.74;96.59;100910.78;5015884;28;20456;-75
2021/07/24 02:15:11;;;;;;;6.30;2.30;;;;;;;14.81;93.96;100913.78;5015472;28;20933;-75
2021/07/24 02:17:38;;;;;;;4.33;2.20;;;;;;;14.80;94.39;100909.47;5015736;28;20894;-75
2021/07/24 02:20:06;;;;;;;7.20;2.47;;;;;;;14.87;93.50;100900.78;5015748;28;20519;-75
2021/07/24 02:22:32;;;;;;;3.00;2.27;;;;;;;14.88;94.79;100905.16;5015768;28;20843;-75
2021/07/24 02:24:59;;;;;;;2.43;2.00;;;;;;;14.91;95.76;100907.22;5015573;28;20491;-75
2021/07/24 02:27:26;;;;;;;6.67;2.90;;;;;;;14.89;96.17;100904.81;5015540;28;20895;-75
2021/07/24 02:29:53;;;;;;;3.70;2.73;;;;;;;14.82;96.90;100909.13;5015591;28;20448;-75
2021/07/24 02:32:19;;;;;;;3.97;2.23;;;;;;;14.78;97.14;100905.44;5015481;28;20444;-76
2021/07/24 02:34:46;;;;;;;4.00;2.77;;;;;;;14.75;97.56;100912.38;5015491;28;20459;-76
2021/07/24 02:37:12;;;;;;;3.77;2.63;;;;;;;14.81;97.24;100900.16;5015024;28;20857;-75
2021/07/24 02:39:38;;;;;;;2.97;2.60;;;;;;;14.80;97.63;100903.22;5015421;28;20554;-75
2021/07/24 02:42:05;;;;;;;3.13;2.23;;;;;;;14.78;97.50;100900.00;5014992;28;20972;-76
2021/07/24 02:44:33;;;;;;;4.03;2.20;;;;;;;14.71;97.73;100895.03;5015499;28;20526;-75
2021/07/24 02:47:00;;;;;;;3.13;2.17;;;;;;;14.70;98.41;100898.91;5015297;28;20815;-73
2021/07/24 02:49:26;;;;;;;5.33;2.90;;;;;;;14.64;98.47;100900.16;5015310;28;20448;-75
2021/07/24 02:51:53;;;;;;;3.40;2.80;;;;;;;14.69;98.32;100900.00;5014907;28;20933;-75
2021/07/24 02:54:19;;;;;;;5.50;3.23;;;;;;;14.65;98.14;100890.84;5015184;28;20444;-75
2021/07/24 02:56:45;;;;;;;3.27;2.83;;;;;;;14.68;98.09;100894.88;5015054;28;20463;-75
2021/07/24 02:59:12;;;;;;;3.50;2.03;;;;;;;14.66;98.56;100891.69;5015000;28;20448;-75
2021/07/24 03:01:40;;;;;;;3.20;2.67;;;;;;;14.64;97.73;100894.72;5014213;28;20448;-75
2021/07/24 03:04:06;;;;;;;4.10;2.30;;;;;;;14.57;95.44;100892.47;5014830;28;20494;-75
2021/07/24 03:06:33;;;;;;;3.93;2.77;;;;;;;14.62;93.10;100894.25;5014930;28;20866;-75
2021/07/24 03:09:00;;;;;;;4.57;2.33;;;;;;;14.51;93.08;100893.72;5014824;28;20447;-75
2021/07/24 03:11:26;;;;;;;2.90;2.00;;;;;;;14.40;93.69;100886.97;5014523;28;20983;-76
2021/07/24 03:13:53;;;;;;;3.47;2.40;;;;;;;14.45;94.16;100886.03;5014755;28;20451;-75
2021/07/24 03:16:19;;;;;;;4.67;2.50;;;;;;;14.39;96.68;100885.38;5014668;28;20831;-75
2021/07/24 03:18:47;;;;;;;2.67;2.00;;;;;;;14.49;96.71;100884.28;5014667;28;20460;-76
2021/07/24 03:21:13;;;;;;;3.73;1.90;;;;;;;14.46;97.17;100879.44;5014574;28;20448;-75
2021/07/24 03:23:40;;;;;;;3.17;2.40;;;;;;;14.58;97.28;100868.75;5014514;28;20451;-75
2021/07/24 03:26:08;;;;;;;4.67;2.50;;;;;;;14.59;97.35;100870.34;5014421;28;20471;-75
2021/07/24 03:28:35;;;;;;;5.90;2.43;;;;;;;14.48;98.24;100869.88;5014230;28;20984;-75
2021/07/24 03:31:01;;;;;;;5.17;2.77;;;;;;;14.49;98.57;100865.22;5014422;28;20456;-76
2021/07/24 03:33:28;;;;;;;2.83;2.03;;;;;;;14.60;97.83;100856.38;5014090;28;20455;-75
2021/07/24 03:35:56;;;;;;;3.40;2.23;;;;;;;14.62;97.45;100856.88;5013941;28;20483;-75
2021/07/24 03:38:23;;;;;;;2.13;1.67;;;;;;;14.67;97.42;100858.63;5014317;28;20447;-75
2021/07/24 03:40:49;;;;;;;3.10;2.13;;;;;;;14.62;98.01;100859.59;5014237;28;20530;-75
2021/07/24 03:43:16;;;;;;;3.43;2.40;;;;;;;14.60;98.73;100852.84;5014184;28;20444;-75
2021/07/24 03:45:42;;;;;;;8.53;2.30;;;;;;;14.69;98.40;100847.41;5014054;28;20542;-75
2021/07/24 03:48:09;;;;;;;3.50;2.80;;;;;;;14.75;97.78;100855.09;5013812;28;20451;-75
2021/07/24 03:50:35;;;;;;;2.93;2.30;;;;;;;14.72;98.17;100853.00;5014092;28;20452;-74
2021/07/24 03:53:03;;;;;;;3.60;2.00;;;;;;;14.73;98.65;100851.88;5013994;28;20444;-74
2021/07/24 03:55:29;;;;;;;4.43;2.97;;;;;;;14.68;99.55;100853.97;5013964;28;20455;-74
2021/07/24 03:57:57;;;;;;;5.47;2.60;;;;;;;14.71;99.74;100851.41;5013978;28;20456;-74
2021/07/24 04:00:24;;;;;;;2.43;1.77;;;;;;;14.87;99.18;100855.25;5013984;28;20842;-74
2021/07/24 04:02:51;;;;;;;5.40;2.50;;;;;;;14.96;97.59;100862.59;5013872;28;20487;-74
2021/07/24 04:05:18;;;;;;;3.37;1.80;;;;;;;14.96;96.25;100855.22;5013768;28;20511;-74
2021/07/24 04:07:45;;;;;;;3.50;2.57;;;;;;;14.98;95.83;100865.81;5013915;28;20436;-73
2021/07/24 04:10:13;;;;;;;4.00;2.57;;;;;;;15.05;95.00;100864.22;5013739;28;20451;-74
2021/07/24 04:12:41;;;;;;;3.47;2.53;;;;;;;15.10;94.59;100863.22;5013693;28;20459;-74
2021/07/24 04:15:08;;;;;;;2.23;2.03;;;;;;;15.10;97.04;100868.69;5013702;28;20522;-74
2021/07/24 04:17:35;;;;;;;4.67;3.00;;;;;;;15.17;97.84;100866.25;5013646;28;20467;-74
2021/07/24 04:20:03;;;;;;;9.60;3.53;;;;;;;15.25;98.54;100876.34;5013317;28;20464;-74
2021/07/24 04:22:29;;;;;;;5.00;2.50;;;;;;;15.36;98.94;100863.97;5013656;28;20474;-74
2021/07/24 04:24:55;;;;;;;3.47;2.90;;;;;;;15.50;99.40;100860.22;5013526;28;20856;-74
2021/07/24 04:27:23;;;;;;;3.63;2.20;;;;;;;15.64;99.34;100863.56;5013529;28;20472;-74
2021/07/24 04:29:50;;;;;;;5.00;2.70;;;;;;;15.67;99.92;100871.09;5013526;28;20451;-74
2021/07/24 04:32:16;;;;;;;4.30;2.53;;;;;;;15.72;100.00;100864.66;5013206;28;20448;-74
2021/07/24 04:34:42;;;;;;;5.60;2.90;;;;;;;15.82;100.00;100865.06;5013227;28;20464;-74
2021/07/24 04:37:09;;;;;;;5.00;2.87;;;;;;;15.92;100.00;100865.81;5013259;28;20475;-74
2021/07/24 04:39:36;;;;;;;4.17;3.10;;;;;;;15.95;100.00;100868.69;5013491;28;20452;-74
2021/07/24 04:42:02;;;;;;;7.80;2.63;;;;;;;16.04;100.00;100864.00;5013476;28;20451;-74
2021/07/24 04:44:30;;;;;;;6.30;3.07;;;;;;;16.12;100.00;100865.06;5013609;28;20490;-72
2021/07/24 04:46:56;;;;;;;5.03;3.07;;;;;;;16.23;100.00;100865.47;5013317;28;20475;-74
2021/07/24 04:49:23;;;;;;;4.40;2.70;;;;;;;16.33;100.00;100876.00;5013114;28;21000;-77
2021/07/24 04:51:49;;;;;;;6.53;3.80;;;;;;;16.38;100.00;100865.69;5013533;28;20947;-73
2021/07/24 04:54:16;;;;;;;4.07;2.87;;;;;;;16.47;100.00;100871.09;5013301;28;20447;-72
2021/07/24 04:56:43;;;;;;;6.43;4.20;;;;;;;16.57;100.00;100872.63;5013240;28;20460;-73
2021/07/24 04:59:10;;;;;;;5.07;3.57;;;;;;;16.64;100.00;100876.44;5013295;28;20451;-74
2021/07/24 05:01:37;;;;;;;6.77;3.83;;;;;;;16.73;100.00;100875.56;5013482;28;20459;-75
2021/07/24 05:04:04;;;;;;;6.57;3.80;;;;;;;16.81;100.00;100880.16;5013107;28;20794;-71
2021/07/24 05:06:31;;;;;;;10.10;4.00;;;;;;;16.88;100.00;100881.22;5012865;28;20996;-71
2021/07/24 05:08:59;;;;;;;4.37;3.40;;;;;;;16.96;100.00;100879.56;5013146;28;20825;-72
2021/07/24 05:11:25;;;;;;;8.67;4.33;;;;;;;17.07;100.00;100877.97;5013014;28;20448;-71
2021/07/24 05:13:51;;;;;;;8.43;4.87;;;;;;;17.17;100.00;100870.47;5012788;28;20487;-71
2021/07/24 05:16:18;;;;;;;12.70;4.57;;;;;;;17.26;100.00;100874.72;5012761;28;20522;-71
2021/07/24 05:18:46;;;;;;;6.20;4.10;;;;;;;17.38;100.00;100880.22;5013101;28;20444;-71
2021/07/24 05:21:16;;;;;;;6.37;4.50;;;;;;;17.51;100.00;100877.50;5012669;28;20440;-71
2021/07/24 05:23:42;;;;;;;13.20;5.20;;;;;;;17.59;100.00;100887.56;5013102;28;20467;-71
2021/07/24 05:26:15;;;;;;;11.83;5.40;;;;;;;17.73;100.00;100888.03;5015965;28;20546;-71
2021/07/24 05:28:42;;;;;;;8.70;4.70;;;;;;;17.85;100.00;100885.31;5016819;28;20434;-71
2021/07/24 05:31:15;;;;;;;11.70;5.20;;;;;;;17.97;100.00;100889.97;5016650;28;20452;-71
2021/07/24 05:33:41;;;;;;;11.67;4.63;;;;;;;18.07;100.00;100886.78;5016609;28;20420;-71
2021/07/24 05:36:09;;;;;;;9.77;5.90;;;;;;;18.18;100.00;100898.09;5016463;28;20471;-71
2021/07/24 05:38:36;;;;;;;10.43;5.70;;;;;;;18.24;100.00;100899.47;5016524;28;20447;-72
2021/07/24 05:41:03;;;;;;;10.23;5.17;;;;;;;18.32;100.00;100898.50;5016489;28;20448;-71
2021/07/24 05:43:29;;;;;;;8.80;4.30;;;;;;;18.40;100.00;100894.84;5016473;28;20522;-71
2021/07/24 05:45:56;;;;;;;8.70;4.47;;;;;;;18.46;100.00;100900.09;5016248;28;20494;-73
2021/07/24 05:48:22;;;;;;;8.03;5.23;;;;;;;18.52;100.00;100899.50;5016364;28;20456;-72
2021/07/24 05:50:48;;;;;;;14.40;5.90;;;;;;;18.64;100.00;100901.44;5016354;28;20439;-74
2021/07/24 05:53:16;;;;;;;9.43;5.63;;;;;;;18.73;100.00;100901.31;5016219;28;20448;-73
2021/07/24 05:55:42;;;;;;;4.80;4.00;;;;;;;18.80;100.00;100891.31;5016176;28;20462;-74
2021/07/24 05:58:09;;;;;;;6.70;4.17;;;;;;;18.89;100.00;100883.72;5016019;28;20459;-73
2021/07/24 06:00:35;;;;;;;7.13;4.40;;;;;;;18.98;100.00;100886.31;5016151;28;20455;-74
2021/07/24 06:03:02;;;;;;;8.27;4.23;;;;;;;19.08;100.00;100893.25;5016082;28;20444;-74
2021/07/24 06:05:28;;;;;;;6.50;4.47;;;;;;;19.16;100.00;100895.03;5015922;28;20502;-73
2021/07/24 06:07:55;;;;;;;8.67;4.37;;;;;;;19.23;100.00;100900.75;5015647;28;20960;-73
2021/07/24 06:10:22;;;;;;;9.93;4.10;;;;;;;19.35;100.00;100902.63;5015969;28;20451;-73
2021/07/24 06:12:49;;;;;;;7.47;4.30;;;;;;;19.43;100.00;100907.13;5015907;28;20451;-73
2021/07/24 06:15:15;;;;;;;7.23;4.70;;;;;;;19.47;100.00;100897.03;5015566;28;20447;-74
2021/07/24 06:17:42;;;;;;;8.50;4.77;;;;;;;19.59;99.49;100893.41;5015767;28;20468;-74
2021/07/24 06:20:09;;;;;;;7.40;4.87;;;;;;;19.68;98.29;100891.31;5015758;28;20440;-74
2021/07/24 06:22:35;;;;;;;8.10;4.47;;;;;;;19.77;97.31;100883.69;5015811;28;20452;-73
2021/07/24 06:25:02;;;;;;;9.00;5.53;;;;;;;19.86;97.16;100881.53;5015439;28;20484;-74
2021/07/24 06:27:29;;;;;;;9.10;4.97;;;;;;;19.94;96.57;100887.22;5015664;28;20460;-73
2021/07/24 06:29:56;;;;;;;7.27;3.20;;;;;;;20.00;95.96;100880.28;5015577;28;20852;-73
2021/07/24 06:32:22;;;;;;;6.13;4.00;;;;;;;20.08;95.20;100882.03;5015610;28;20435;-73
2021/07/24 06:34:49;;;;;;;5.47;3.40;;;;;;;20.12;93.02;100872.72;5015349;28;20470;-73
2021/07/24 06:37:15;;;;;;;7.60;4.90;;;;;;;20.19;92.02;100871.28;5014201;28;20460;-73
2021/07/24 06:39:41;;;;;;;11.80;4.97;;;;;;;20.21;91.44;100863.47;5015130;28;20793;-73
2021/07/24 06:42:09;;;;;;;5.50;3.20;;;;;;;20.28;90.90;100864.44;5015035;28;20945;-73
2021/07/24 06:44:36;;;;;;;10.87;6.03;;;;;;;20.37;90.84;100865.03;5015284;28;20459;-73
2021/07/24 06:47:03;;;;;;;9.00;4.53;;;;;;;20.45;91.08;100874.22;5014872;28;20981;-73
2021/07/24 06:49:30;;;;;;;7.50;4.50;;;;;;;20.55;89.33;100872.88;5015257;28;20448;-73
2021/07/24 06:51:56;;;;;;;8.47;3.83;;;;;;;20.68;88.32;100877.09;5015119;28;20447;-73
2021/07/24 06:54:22;;;;;;;9.63;5.00;;;;;;;20.80;88.93;100873.38;5014668;28;20464;-73
2021/07/24 06:56:49;;;;;;;10.37;4.10;;;;;;;20.89;89.06;100866.50;5015028;28;20460;-75
2021/07/24 06:59:15;;;;;;;7.47;4.27;;;;;;;20.99;88.03;100864.31;5014706;28;20864;-74
2021/07/24 07:01:44;;;;;;;9.13;4.20;;;;;;;21.09;86.30;100858.19;5015312;28;20444;-76
2021/07/24 07:04:10;;;;;;;13.27;4.33;;;;;;;21.20;85.43;100856.41;5015043;28;20451;-76
2021/07/24 07:06:40;;;;;;;8.30;4.60;;;;;;;21.27;85.94;100864.81;5015658;28;20502;-75
2021/07/24 07:09:06;;;;;;;18.63;5.83;;;;;;;21.34;85.66;100856.72;5014862;28;20822;-73
2021/07/24 07:11:32;;;;;;;8.57;4.97;;;;;;;21.38;85.60;100857.59;5014832;28;20444;-72
2021/07/24 07:13:59;;;;;;;10.50;4.73;;;;;;;21.49;84.51;100857.75;5014411;28;20870;-72
2021/07/24 07:16:25;;;;;;;9.13;5.00;;;;;;;21.59;83.94;100853.56;5014389;28;20989;-73
2021/07/24 07:18:53;;;;;;;6.47;3.83;;;;;;;21.71;82.92;100853.38;5014703;28;20447;-75
2021/07/24 07:21:19;;;;;;;8.30;4.53;;;;;;;21.82;81.32;100848.00;5014602;28;20448;-74
2021/07/24 07:23:46;;;;;;;9.40;5.23;;;;;;;21.89;81.57;100850.88;5013951;28;20953;-75
2021/07/24 07:26:13;;;;;;;12.27;4.67;;;;;;;22.00;81.42;100848.28;5025362;22;20446;-82
2021/07/24 07:28:39;;;;;;;6.57;3.67;;;;;;;22.08;80.52;100850.75;5036165;28;20489;-83
2021/07/24 07:31:05;;;;;;;10.73;4.43;;;;;;;22.10;79.87;100844.91;5036055;28;20474;-84
2021/07/24 07:33:32;;;;;;;10.13;4.80;;;;;;;22.20;79.17;100838.75;5035373;28;20952;-82
2021/07/24 07:36:02;;;;;;;10.60;5.13;;;;;;;22.32;79.26;100840.50;5036389;28;20963;-86
2021/07/24 07:38:28;;;;;;;10.53;4.40;;;;;;;22.36;79.88;100835.81;5035109;28;20450;-84
2021/07/24 07:40:55;;;;;;;10.97;4.73;;;;;;;22.44;79.12;100836.66;5035460;28;20521;-86
2021/07/24 07:43:22;;;;;;;9.23;4.60;;;;;;;22.52;78.66;100832.84;5035412;28;20443;-82
2021/07/24 07:45:48;;;;;;;13.53;4.80;;;;;;;22.56;78.67;100839.97;5034893;28;21018;-82
2021/07/24 07:48:15;;;;;;;9.60;5.30;;;;;;;22.56;78.83;100830.91;5034789;28;20447;-83
2021/07/24 07:50:43;;;;;;;13.97;5.60;;;;;;;22.58;79.17;100834.09;5035242;28;20466;-82
2021/07/24 07:53:11;;;;;;;8.47;4.60;;;;;;;22.60;79.82;100829.00;5034949;28;20533;-83
2021/07/24 07:55:41;;;;;;;11.77;5.73;;;;;;;22.63;79.45;100831.00;5035000;28;20812;-83
2021/07/24 07:58:10;;;;;;;12.57;5.37;;;;;;;22.69;78.61;100832.25;5035014;28;20462;-82
2021/07/24 08:00:37;;;;;;;11.20;5.83;;;;;;;22.72;77.81;100830.72;5035381;28;20478;-82
2021/07/24 08:03:04;;;;;;;10.83;4.87;;;;;;;22.80;76.82;100832.34;5035297;28;20796;-83
2021/07/24 08:05:30;;;;;;;10.40;5.10;;;;;;;22.85;76.46;100824.53;5035061;28;20854;-82
2021/07/24 08:07:57;;;;;;;11.73;4.87;;;;;;;22.90;74.42;100826.97;5034937;28;20440;-82
2021/07/24 08:10:25;;;;;;;8.27;4.37;;;;;;;22.99;75.55;100821.16;5034781;28;20470;-83
2021/07/24 08:12:52;;;;;;;6.67;4.63;;;;;;;23.15;74.34;100820.88;5034759;28;20451;-83
2021/07/24 08:15:19;;;;;;;8.50;4.13;;;;;;;23.28;73.72;100813.91;5035608;28;20493;-84
2021/07/24 08:17:46;;;;;;;12.53;5.33;;;;;;;23.38;75.29;100815.97;5034970;28;20450;-84
2021/07/24 08:20:13;;;;;;;10.43;5.53;;;;;;;23.46;73.06;100816.03;5034557;28;20470;-83
2021/07/24 08:22:39;;;;;;;7.50;4.87;;;;;;;23.53;73.96;100825.16;5034814;28;20804;-80
2021/07/24 08:25:07;;;;;;;9.07;4.80;;;;;;;23.60;71.73;100827.22;5035231;28;20450;-82
2021/07/24 08:27:35;;;;;;;8.83;4.60;;;;;;;23.74;71.79;100818.25;5034988;28;20455;-82
2021/07/24 08:30:02;;;;;;;11.93;5.10;;;;;;;23.81;70.75;100816.28;5034731;28;20478;-83
2021/07/24 08:32:29;;;;;;;10.50;5.20;;;;;;;23.89;70.41;100815.16;5035211;28;20439;-81
2021/07/24 08:34:56;;;;;;;12.67;6.17;;;;;;;24.02;68.73;100820.38;5035297;28;20497;-83
2021/07/24 08:37:23;;;;;;;8.17;4.83;;;;;;;24.15;68.77;100811.34;5035332;28;20530;-83
2021/07/24 08:39:49;;;;;;;11.87;5.40;;;;;;;24.23;67.29;100814.97;5035151;28;20431;-83
2021/07/24 08:42:29;;;;;;;12.30;6.07;;;;;;;24.34;66.82;100813.00;5035530;28;20940;-82
2021/07/24 08:44:59;;;;;;;9.47;4.70;;;;;;;24.40;65.54;100817.03;5035112;28;20435;-83
2021/07/24 08:47:25;;;;;;;10.73;5.60;;;;;;;24.51;65.20;100816.28;5035222;28;20482;-83
2021/07/24 08:49:52;;;;;;;7.80;4.93;;;;;;;24.57;65.43;100811.94;5035104;28;20450;-82
2021/07/24 08:52:20;;;;;;;7.97;5.10;;;;;;;24.64;64.43;100803.66;5035086;28;20447;-83
2021/07/24 08:54:47;;;;;;;11.60;5.40;;;;;;;24.72;63.94;100816.34;5034550;28;20451;-82
2021/07/24 08:57:17;;;;;;;6.80;4.50;;;;;;;24.78;60.75;100803.69;5034884;28;20451;-82
2021/07/24 08:59:45;;;;;;;11.13;5.33;;;;;;;24.84;61.71;100804.91;5035802;28;20431;-82
2021/07/24 09:02:13;;;;;;;8.17;5.00;;;;;;;24.96;61.65;100802.94;5037757;28;20928;-82
2021/07/24 09:04:47;;;;;;;9.20;5.00;;;;;;;25.08;59.81;100797.03;5038775;28;20438;-83
2021/07/24 09:07:13;;;;;;;9.70;4.80;;;;;;;25.20;59.95;100806.97;5038496;28;20475;-82
2021/07/24 09:09:44;;;;;;;10.30;5.17;;;;;;;25.26;60.63;100795.06;5038429;28;20444;-82
2021/07/24 09:12:11;;;;;;;7.20;4.80;;;;;;;25.35;58.19;100803.78;5038422;28;20883;-81
2021/07/24 09:14:38;;;;;;;7.83;4.43;;;;;;;25.35;56.11;100794.66;5038232;28;20439;-82
2021/07/24 09:17:04;;;;;;;7.97;4.20;;;;;;;25.44;56.70;100791.50;5038301;28;20929;-82
2021/07/24 09:19:33;;;;;;;8.43;5.37;;;;;;;25.51;56.88;100792.28;5039164;28;20454;-83
2021/07/24 09:22:00;;;;;;;9.37;4.60;;;;;;;25.60;57.77;100786.31;5037542;28;20998;-82
2021/07/24 09:24:27;;;;;;;8.43;4.37;;;;;;;25.66;54.85;100777.19;5037965;28;20450;-82
2021/07/24 09:26:53;;;;;;;6.13;4.27;;;;;;;25.81;55.13;100777.16;5038036;28;20533;-81
2021/07/24 09:29:21;;;;;;;7.23;4.50;;;;;;;25.89;56.58;100787.84;5038650;28;20447;-80
2021/07/24 09:31:48;;;;;;;9.73;4.93;;;;;;;25.89;54.82;100787.06;5037900;28;20459;-82
2021/07/24 09:34:16;;;;;;;7.10;4.47;;;;;;;25.97;54.92;100785.06;5038643;28;20495;-81
2021/07/24 09:36:47;;;;;;;9.30;5.10;;;;;;;25.98;55.56;100778.31;5037962;28;20458;-81
2021/07/24 09:39:14;;;;;;;8.33;3.50;;;;;;;26.07;56.31;100781.47;5037808;28;20900;-84
2021/07/24 09:41:42;;;;;;;8.80;3.87;;;;;;;26.14;57.57;100775.88;5037402;28;21019;-82
2021/07/24 09:44:09;;;;;;;10.37;4.40;;;;;;;26.21;56.87;100780.59;5037567;28;20978;-82
2021/07/24 09:46:35;;;;;;;8.87;4.63;;;;;;;26.30;57.27;100767.09;5037725;28;20497;-83
2021/07/24 09:49:14;;;;;;;7.87;4.50;;;;;;;26.38;56.93;100769.41;5037632;28;20959;-83
2021/07/24 09:51:42;;;;;;;6.57;3.80;;;;;;;26.49;57.34;100760.28;5037553;28;20485;-82
2021/07/24 09:54:26;;;;;;;7.83;4.60;;;;;;;26.56;55.81;100760.22;5037165;28;20459;-81
2021/07/24 09:56:53;;;;;;;8.17;4.23;;;;;;;26.62;55.83;100761.38;5036950;28;20905;-83
2021/07/24 09:59:20;;;;;;;7.90;4.63;;;;;;;26.71;52.12;100767.28;5036789;28;20435;-82
2021/07/24 10:01:54;;;;;;;8.03;4.17;;;;;;;26.82;52.76;100767.19;5036756;28;20844;-83
2021/07/24 10:04:28;;;;;;;7.93;4.93;;;;;;;26.90;54.62;100772.31;5036352;28;20428;-82
2021/07/24 10:07:00;;;;;;;10.70;4.60;;;;;;;26.99;52.98;100765.50;5036053;28;20518;-81
2021/07/24 10:09:33;;;;;;;7.60;4.67;;;;;;;27.05;52.45;100763.84;5036374;28;20553;-82
2021/07/24 10:12:01;;;;;;;5.87;3.67;;;;;;;27.12;51.32;100761.84;5036722;28;20517;-81
2021/07/24 10:14:28;;;;;;;7.60;4.30;;;;;;;27.16;51.51;100773.72;5036534;28;20443;-81
2021/07/24 10:16:57;;;;;;;7.50;3.87;;;;;;;27.12;51.61;100772.97;5036359;28;20987;-80
2021/07/24 10:19:25;;;;;;;7.53;4.30;;;;;;;27.17;49.86;100768.94;5036864;28;20490;-81
2021/07/24 10:21:53;;;;;;;10.70;5.17;;;;;;;27.25;51.32;100775.25;5036044;28;20462;-82
2021/07/24 10:24:20;;;;;;;9.27;5.40;;;;;;;27.25;50.99;100770.47;5036106;28;20439;-81
2021/07/24 10:26:57;;;;;;;7.67;5.00;;;;;;;27.36;51.01;100776.75;5036226;28;20506;-82
2021/07/24 10:29:29;;;;;;;8.10;4.67;;;;;;;27.37;50.13;100775.53;5036296;28;20435;-84
2021/07/24 10:32:02;;;;;;;10.03;4.13;;;;;;;27.46;51.82;100769.50;5036234;28;20812;-86
2021/07/24 10:34:31;;;;;;;7.90;4.03;;;;;;;27.52;49.85;100778.16;5036545;28;20800;-83
2021/07/24 10:36:58;;;;;;;7.90;4.50;;;;;;;27.63;48.88;100767.75;5035885;28;20959;-81
2021/07/24 10:39:25;;;;;;;7.33;4.50;;;;;;;27.70;50.83;100767.63;5035641;28;20439;-83
2021/07/24 10:41:53;;;;;;;8.60;4.00;;;;;;;27.88;50.60;100761.91;5035610;28;20471;-82
2021/07/24 10:44:39;;;;;;;8.63;4.60;;;;;;;28.12;49.54;100760.81;5035633;28;20814;-81
2021/07/24 10:47:16;;;;;;;8.97;4.27;;;;;;;28.31;49.01;100761.38;5035520;28;20841;-81
2021/07/24 10:49:58;;;;;;;8.03;3.90;;;;;;;28.45;49.86;100763.22;5035528;28;20435;-81
2021/07/24 10:52:25;;;;;;;5.50;3.80;;;;;;;28.45;47.00;100766.78;5035462;28;20458;-81
2021/07/24 10:55:16;;;;;;;8.60;4.10;;;;;;;28.48;46.60;100754.81;5035408;28;20447;-81
2021/07/24 10:58:08;;;;;;;4.60;3.43;;;;;;;28.56;46.11;100755.50;5024948;28;20459;-80
2021/07/24 11:00:53;;;;;;;7.50;4.93;;;;;;;28.56;46.70;100747.13;5035253;28;20459;-80
2021/07/24 11:03:40;;;;;;;9.23;4.50;;;;;;;28.59;45.46;100746.28;5035183;28;20438;-80
2021/07/24 11:06:28;;;;;;;6.10;4.07;;;;;;;28.72;48.47;100746.47;5035284;28;20455;-81
2021/07/24 11:09:09;;;;;;;7.43;4.70;;;;;;;28.88;46.87;100741.84;5035320;28;20436;-81
2021/07/24 11:11:37;;;;;;;6.73;3.97;;;;;;;28.99;46.38;100736.09;5035065;28;20534;-81
2021/07/24 11:14:05;;;;;;;8.83;4.87;;;;;;;29.12;46.66;100733.50;5035088;28;20517;-81
2021/07/24 11:17:04;;;;;;;5.27;3.20;;;;;;;29.35;47.05;100733.50;5034766;28;20822;-80
2021/07/24 11:19:31;;;;;;;6.17;4.07;;;;;;;29.66;46.64;100730.53;5034719;28;20456;-80
2021/07/24 11:22:11;;;;;;;6.57;4.27;;;;;;;29.99;46.10;100728.69;5035649;28;20546;-80
2021/07/24 11:24:39;;;;;;;8.03;4.27;;;;;;;30.52;44.79;100739.94;5037548;28;20446;-79
2021/07/24 11:27:05;;;;;;;7.00;3.90;;;;;;;31.02;43.06;100727.56;5036879;28;20494;-79
2021/07/24 11:29:33;;;;;;;6.20;4.10;;;;;;;31.69;42.00;100727.00;5037079;28;20450;-80